createdAt,value
2023-02-08T04:00:35.580Z,0.00
2023-02-08T04:01:35.577Z,0.00
2023-02-08T04:02:35.557Z,0.00
2023-02-08T04:03:35.548Z,0.00
2023-02-08T04:04:35.547Z,0.00
2023-02-08T04:05:35.552Z,0.00
2023-02-08T04:06:35.561Z,0.00
2023-02-08T04:07:35.557Z,0.00
2023-02-08T04:08:35.551Z,0.00
2023-02-08T04:09:37.845Z,0.00
2023-02-08T04:10:35.577Z,0.00
2023-02-08T04:11:35.559Z,0.00
2023-02-08T04:12:35.559Z,0.00
2023-02-08T04:13:35.556Z,0.00
2023-02-08T04:14:33.877Z,0.00
2023-02-08T04:15:35.111Z,0.00
2023-02-08T04:16:35.602Z,0.00
2023-02-08T04:17:35.069Z,0.00
2023-02-08T04:18:34.867Z,0.00
2023-02-08T04:19:34.846Z,0.00
2023-02-08T04:20:34.838Z,0.00
2023-02-08T04:21:34.836Z,0.00
2023-02-08T04:22:35.578Z,0.00
2023-02-08T04:23:35.072Z,0.00
2023-02-08T04:24:33.817Z,0.00
2023-02-08T04:25:35.078Z,0.00
2023-02-08T04:26:34.802Z,0.00
2023-02-08T04:27:35.579Z,0.00
2023-02-08T04:28:35.584Z,0.00
2023-02-08T04:29:33.794Z,0.00
2023-02-08T04:30:35.608Z,0.00
2023-02-08T04:31:34.864Z,0.00
2023-02-08T04:32:35.617Z,0.00
2023-02-08T04:33:35.572Z,0.00
2023-02-08T04:34:35.572Z,0.00
2023-02-08T04:35:35.572Z,0.00
2023-02-08T04:36:35.611Z,0.00
2023-02-08T04:37:35.584Z,0.00
2023-02-08T04:38:35.578Z,0.00
2023-02-08T04:39:35.575Z,0.00
2023-02-08T04:40:34.740Z,0.00
2023-02-08T04:41:35.096Z,0.00
2023-02-08T04:42:33.726Z,0.00
2023-02-08T04:43:33.730Z,0.00
2023-02-08T04:44:33.721Z,0.00
2023-02-08T04:45:33.769Z,0.00
2023-02-08T04:46:35.106Z,0.00
2023-02-08T04:47:33.705Z,0.00
2023-02-08T04:48:35.122Z,0.00
2023-02-08T04:49:35.588Z,0.00
2023-02-08T04:50:35.618Z,0.00
2023-02-08T04:51:35.599Z,0.00
2023-02-08T04:52:35.587Z,0.00
2023-02-08T04:53:35.590Z,0.00
2023-02-08T04:54:35.599Z,0.00
2023-02-08T04:55:35.600Z,0.00
2023-02-08T04:56:35.608Z,0.00
2023-02-08T04:57:35.596Z,0.00
2023-02-08T04:58:34.649Z,0.00
2023-02-08T04:59:35.624Z,0.00
2023-02-08T05:00:35.596Z,0.00
2023-02-08T05:01:35.622Z,0.00
2023-02-08T05:02:35.598Z,0.00
2023-02-08T05:03:35.598Z,0.00
2023-02-08T05:04:35.625Z,0.00
2023-02-08T05:05:35.611Z,0.00
2023-02-08T05:06:35.122Z,0.00
2023-02-08T05:07:35.097Z,0.00
2023-02-08T05:08:35.103Z,0.00
2023-02-08T05:09:34.618Z,0.00
2023-02-08T05:10:35.108Z,0.00
2023-02-08T05:11:34.576Z,0.00
2023-02-08T05:12:34.568Z,0.00
2023-02-08T05:13:34.566Z,0.00
2023-02-08T05:14:34.570Z,0.00
2023-02-08T05:15:35.144Z,0.00
2023-02-08T05:16:34.552Z,0.00
2023-02-08T05:17:34.558Z,0.00
2023-02-08T05:18:34.620Z,0.00
2023-02-08T05:19:34.547Z,0.00
2023-02-08T05:20:35.135Z,0.00
2023-02-08T05:21:35.117Z,0.00
2023-02-08T05:22:35.104Z,0.00
2023-02-08T05:23:35.121Z,0.00
2023-02-08T05:24:35.109Z,0.00
2023-02-08T05:25:35.128Z,0.00
2023-02-08T05:26:35.111Z,0.00
2023-02-08T05:27:35.122Z,0.00
2023-02-08T05:28:35.121Z,0.00
2023-02-08T05:29:35.131Z,0.00
2023-02-08T05:30:35.110Z,0.00
2023-02-08T05:31:35.253Z,0.00
2023-02-08T05:32:35.133Z,0.00
2023-02-08T05:33:35.118Z,0.00
2023-02-08T05:34:35.126Z,0.00
2023-02-08T05:35:35.121Z,0.00
2023-02-08T05:36:35.127Z,0.00
2023-02-08T05:37:35.156Z,0.00
2023-02-08T05:38:35.139Z,0.00
2023-02-08T05:39:35.117Z,0.00
2023-02-08T05:40:35.124Z,0.00
2023-02-08T05:41:35.152Z,0.00
2023-02-08T05:42:35.119Z,0.00
2023-02-08T05:43:35.135Z,0.00
2023-02-08T05:44:34.406Z,0.00
2023-02-08T05:45:35.144Z,0.00
2023-02-08T05:46:36.524Z,0.00
2023-02-08T05:47:35.123Z,0.00
2023-02-08T05:48:35.120Z,0.00
2023-02-08T05:49:34.385Z,0.00
2023-02-08T05:50:33.379Z,0.00
2023-02-08T05:51:34.638Z,0.00
2023-02-08T05:52:34.382Z,0.00
2023-02-08T05:53:34.364Z,0.00
2023-02-08T05:54:34.367Z,0.00
2023-02-08T05:55:33.353Z,0.00
2023-02-08T05:56:35.146Z,0.00
2023-02-08T05:57:35.678Z,0.00
2023-02-08T05:58:35.140Z,0.00
2023-02-08T05:59:34.341Z,0.00
2023-02-08T06:00:35.154Z,0.00
2023-02-08T06:01:33.323Z,0.00
2023-02-08T06:02:35.131Z,0.00
2023-02-08T06:03:35.150Z,0.00
2023-02-08T06:04:34.315Z,0.00
2023-02-08T06:05:35.142Z,0.00
2023-02-08T06:06:35.144Z,0.00
2023-02-08T06:07:34.295Z,0.00
2023-02-08T06:08:35.158Z,0.00
2023-02-08T06:09:34.285Z,0.00
2023-02-08T06:10:35.136Z,0.00
2023-02-08T06:11:35.187Z,0.00
2023-02-08T06:12:35.144Z,0.00
2023-02-08T06:13:33.282Z,0.00
2023-02-08T06:14:33.256Z,0.00
2023-02-08T06:15:35.187Z,0.00
2023-02-08T06:16:33.269Z,0.00
2023-02-08T06:17:33.252Z,0.00
2023-02-08T06:18:33.244Z,0.00
2023-02-08T06:19:33.248Z,0.00
2023-02-08T06:20:34.660Z,0.00
2023-02-08T06:21:34.657Z,0.00
2023-02-08T06:22:33.232Z,0.00
2023-02-08T06:23:34.222Z,0.00
2023-02-08T06:24:35.168Z,0.00
2023-02-08T06:25:35.151Z,0.00
2023-02-08T06:26:35.164Z,0.00
2023-02-08T06:27:35.149Z,0.00
2023-02-08T06:28:35.147Z,0.00
2023-02-08T06:29:35.148Z,0.00
2023-02-08T06:30:35.150Z,0.00
2023-02-08T06:31:35.193Z,0.00
2023-02-08T06:32:33.365Z,0.00
2023-02-08T06:33:34.180Z,0.00
2023-02-08T06:34:34.672Z,0.00
2023-02-08T06:35:34.668Z,0.00
2023-02-08T06:36:34.682Z,0.00
2023-02-08T06:37:34.665Z,0.00
2023-02-08T06:38:33.144Z,0.00
2023-02-08T06:39:34.152Z,0.00
2023-02-08T06:40:34.670Z,0.00
2023-02-08T06:41:34.682Z,0.00
2023-02-08T06:42:34.661Z,0.00
2023-02-08T06:43:34.150Z,0.00
2023-02-08T06:44:34.662Z,0.00
2023-02-08T06:45:33.159Z,0.00
2023-02-08T06:46:34.701Z,0.00
2023-02-08T06:47:34.104Z,0.00
2023-02-08T06:48:33.088Z,0.00
2023-02-08T06:49:33.098Z,0.00
2023-02-08T06:50:34.115Z,0.00
2023-02-08T06:51:35.216Z,0.00
2023-02-08T06:52:34.070Z,0.00
2023-02-08T06:53:34.207Z,0.00
2023-02-08T06:54:33.428Z,0.00
2023-02-08T06:55:33.052Z,0.00
2023-02-08T06:56:33.115Z,0.00
2023-02-08T06:57:34.712Z,0.00
2023-02-08T06:58:34.723Z,0.00
2023-02-08T06:59:33.116Z,0.00
2023-02-08T07:00:33.042Z,0.00
2023-02-08T07:01:34.713Z,0.00
2023-02-08T07:02:34.737Z,0.00
2023-02-08T07:03:33.702Z,5.63
2023-02-08T07:04:34.684Z,5.63
2023-02-08T07:05:34.683Z,5.63
2023-02-08T07:06:34.681Z,5.63
2023-02-08T07:07:34.684Z,5.63
2023-02-08T07:08:34.702Z,5.63
2023-02-08T07:09:34.700Z,5.63
2023-02-08T07:10:34.685Z,5.63
2023-02-08T07:11:34.715Z,5.63
2023-02-08T07:12:34.708Z,5.63
2023-02-08T07:13:34.691Z,5.63
2023-02-08T07:14:32.965Z,5.63
2023-02-08T07:15:32.964Z,5.63
2023-02-08T07:16:33.009Z,5.63
2023-02-08T07:17:34.707Z,11.25
2023-02-08T07:18:32.946Z,11.25
2023-02-08T07:19:32.939Z,11.25
2023-02-08T07:20:34.713Z,11.25
2023-02-08T07:21:34.216Z,11.25
2023-02-08T07:22:32.921Z,11.25
2023-02-08T07:23:34.720Z,11.25
2023-02-08T07:24:32.940Z,11.25
2023-02-08T07:25:34.719Z,11.25
2023-02-08T07:26:33.060Z,11.25
2023-02-08T07:27:34.715Z,11.25
2023-02-08T07:28:33.041Z,11.25
2023-02-08T07:29:34.712Z,11.25
2023-02-08T07:30:32.939Z,16.88
2023-02-08T07:31:35.726Z,16.88
2023-02-08T07:32:34.777Z,16.88
2023-02-08T07:33:34.727Z,16.88
2023-02-08T07:34:34.734Z,16.88
2023-02-08T07:35:34.709Z,16.88
2023-02-08T07:36:32.852Z,16.88
2023-02-08T07:37:34.724Z,16.88
2023-02-08T07:38:34.727Z,16.88
2023-02-08T07:39:34.748Z,16.88
2023-02-08T07:40:34.753Z,16.88
2023-02-08T07:41:34.767Z,16.88
2023-02-08T07:42:34.761Z,16.88
2023-02-08T07:43:34.725Z,16.88
2023-02-08T07:44:34.714Z,22.50
2023-02-08T07:45:34.751Z,22.50
2023-02-08T07:46:34.714Z,22.50
2023-02-08T07:47:34.759Z,22.50
2023-02-08T07:48:34.726Z,22.50
2023-02-08T07:49:32.795Z,22.50
2023-02-08T07:50:32.799Z,22.50
2023-02-08T07:51:32.791Z,22.50
2023-02-08T07:52:32.780Z,22.50
2023-02-08T07:53:34.266Z,22.50
2023-02-08T07:54:32.771Z,22.50
2023-02-08T07:55:32.763Z,22.50
2023-02-08T07:56:32.817Z,22.50
2023-02-08T07:57:34.740Z,22.50
2023-02-08T07:58:33.797Z,22.50
2023-02-08T07:59:34.760Z,22.50
2023-02-08T08:00:35.248Z,28.13
2023-02-08T08:01:34.287Z,28.13
2023-02-08T08:02:34.290Z,28.13
2023-02-08T08:03:32.721Z,28.13
2023-02-08T08:04:34.238Z,33.75
2023-02-08T08:05:34.235Z,45.00
2023-02-08T08:06:34.243Z,50.63
2023-02-08T08:07:34.242Z,50.63
2023-02-08T08:08:34.249Z,50.63
2023-02-08T08:09:34.286Z,50.63
2023-02-08T08:10:34.260Z,56.25
2023-02-08T08:12:34.247Z,56.25
2023-02-08T08:14:34.243Z,56.25
2023-02-08T08:15:34.283Z,56.25
2023-02-08T08:16:34.375Z,56.25
2023-02-08T08:17:34.242Z,56.25
2023-02-08T08:18:34.258Z,56.25
2023-02-08T08:19:34.248Z,56.25
2023-02-08T08:21:34.260Z,56.25
2023-02-08T08:22:34.254Z,56.25
2023-02-08T08:23:34.272Z,56.25
2023-02-08T08:24:34.261Z,56.25
2023-02-08T08:25:34.641Z,56.25
2023-02-08T08:26:34.254Z,61.88
2023-02-08T08:27:34.267Z,61.88
2023-02-08T08:28:34.396Z,61.88
2023-02-08T08:29:34.267Z,61.88
2023-02-08T08:30:32.637Z,61.88
2023-02-08T08:31:35.817Z,61.88
2023-02-08T08:32:32.623Z,61.88
2023-02-08T08:33:35.831Z,61.88
2023-02-08T08:34:32.577Z,61.88
2023-02-08T08:35:35.281Z,61.88
2023-02-08T08:36:32.708Z,61.88
2023-02-08T08:37:34.321Z,61.88
2023-02-08T08:38:32.574Z,61.88
2023-02-08T08:39:32.583Z,61.88
2023-02-08T08:40:32.739Z,61.88
2023-02-08T08:41:32.548Z,61.88
2023-02-08T08:42:34.289Z,61.88
2023-02-08T08:43:34.297Z,61.88
2023-02-08T08:44:34.550Z,61.88
2023-02-08T08:45:32.547Z,67.50
2023-02-08T08:46:34.119Z,67.50
2023-02-08T08:47:32.561Z,67.50
2023-02-08T08:48:33.021Z,67.50
2023-02-08T08:49:32.540Z,67.50
2023-02-08T08:50:34.304Z,67.50
2023-02-08T08:51:32.641Z,67.50
2023-02-08T08:52:32.504Z,67.50
2023-02-08T08:53:32.631Z,67.50
2023-02-08T08:54:34.494Z,67.50
2023-02-08T08:55:33.452Z,67.50
2023-02-08T08:56:32.532Z,67.50
2023-02-08T08:57:32.490Z,73.13
2023-02-08T08:58:32.486Z,73.13
2023-02-08T08:59:34.382Z,73.13
2023-02-08T09:00:32.478Z,73.13
2023-02-08T09:01:34.825Z,73.13
2023-02-08T09:02:34.359Z,73.13
2023-02-08T09:03:34.846Z,73.13
2023-02-08T09:04:32.942Z,73.13
2023-02-08T09:05:32.545Z,73.13
2023-02-08T09:06:34.287Z,78.75
2023-02-08T09:07:34.302Z,78.75
2023-02-08T09:08:34.324Z,78.75
2023-02-08T09:09:34.296Z,78.75
2023-02-08T09:10:34.777Z,78.75
2023-02-08T09:11:32.435Z,78.75
2023-02-08T09:12:34.432Z,78.75
2023-02-08T09:13:34.288Z,78.75
2023-02-08T09:14:34.283Z,78.75
2023-02-08T09:15:34.286Z,78.75
2023-02-08T09:16:32.770Z,78.75
2023-02-08T09:17:34.307Z,78.75
2023-02-08T09:18:34.305Z,78.75
2023-02-08T09:19:34.294Z,78.75
2023-02-08T09:20:37.452Z,78.75
2023-02-08T09:21:33.086Z,78.75
2023-02-08T09:22:33.063Z,78.75
2023-02-08T09:23:34.431Z,78.75
2023-02-08T09:24:34.412Z,78.75
2023-02-08T09:25:32.383Z,78.75
2023-02-08T09:27:33.904Z,78.75
2023-02-08T09:28:32.405Z,78.75
2023-02-08T09:29:32.366Z,78.75
2023-02-08T09:30:32.362Z,84.38
2023-02-08T09:31:32.478Z,84.38
2023-02-08T09:32:34.458Z,84.38
2023-02-08T09:33:32.402Z,84.38
2023-02-08T09:34:34.331Z,84.38
2023-02-08T09:36:34.354Z,84.38
2023-02-08T09:38:34.810Z,84.38
2023-02-08T09:39:34.328Z,84.38
2023-02-08T09:40:34.331Z,84.38
2023-02-08T09:41:34.323Z,90.00
2023-02-08T09:42:34.317Z,90.00
2023-02-08T09:43:34.345Z,90.00
2023-02-08T09:45:34.314Z,90.00
2023-02-08T09:46:34.922Z,90.00
2023-02-08T09:47:35.071Z,90.00
2023-02-08T09:48:33.828Z,90.00
2023-02-08T09:49:34.041Z,90.00
2023-02-08T09:50:35.974Z,90.00
2023-02-08T09:51:34.443Z,90.00
2023-02-08T09:52:33.445Z,90.00
2023-02-08T09:53:33.824Z,90.00
2023-02-08T09:54:33.828Z,95.63
2023-02-08T09:55:33.879Z,95.63
2023-02-08T09:56:34.216Z,95.63
2023-02-08T09:58:34.466Z,95.63
2023-02-08T09:59:34.049Z,95.63
2023-02-08T10:00:33.892Z,95.63
2023-02-08T10:01:32.297Z,95.63
2023-02-08T10:02:33.999Z,95.63
2023-02-08T10:13:47.423Z,101.25
2023-02-08T10:15:47.386Z,106.88
2023-02-08T10:16:47.383Z,106.88
2023-02-08T10:17:49.198Z,106.88
2023-02-08T10:18:47.364Z,106.88
2023-02-08T10:19:50.583Z,106.88
2023-02-08T10:20:47.451Z,106.88
2023-02-08T10:21:47.378Z,106.88
2023-02-08T10:22:47.457Z,106.88
2023-02-08T10:23:47.358Z,106.88
2023-02-08T10:24:49.178Z,112.50
2023-02-08T10:25:47.528Z,112.50
2023-02-08T10:26:47.515Z,112.50
2023-02-08T10:27:48.044Z,112.50
2023-02-08T10:28:47.801Z,112.50
2023-02-08T10:29:49.346Z,112.50
2023-02-08T10:30:47.716Z,112.50
2023-02-08T10:31:49.394Z,112.50
2023-02-08T10:32:47.546Z,112.50
2023-02-08T10:33:47.414Z,112.50
2023-02-08T10:34:48.419Z,118.13
2023-02-08T10:35:47.346Z,118.13
2023-02-08T10:36:47.543Z,118.13
2023-02-08T10:37:47.511Z,112.50
2023-02-08T10:38:47.470Z,118.13
2023-02-08T10:39:49.157Z,118.13
2023-02-08T10:40:47.438Z,118.13
2023-02-08T10:41:49.175Z,123.75
2023-02-08T10:42:47.876Z,118.13
2023-02-08T10:43:47.858Z,118.13
2023-02-08T10:44:48.435Z,118.13
2023-02-08T10:45:47.545Z,118.13
2023-02-08T10:46:52.053Z,118.13
2023-02-08T10:47:47.725Z,123.75
2023-02-08T10:48:49.198Z,123.75
2023-02-08T10:49:47.333Z,123.75
2023-02-08T10:50:49.176Z,123.75
2023-02-08T10:52:49.194Z,123.75
2023-02-08T10:53:49.156Z,123.75
2023-02-08T10:54:49.167Z,123.75
2023-02-08T10:55:49.157Z,123.75
2023-02-08T10:56:49.178Z,118.13
2023-02-08T10:57:49.162Z,118.13
2023-02-08T10:58:49.158Z,118.13
2023-02-08T10:59:49.163Z,129.38
2023-02-08T11:00:49.228Z,135.00
2023-02-08T11:01:49.170Z,135.00
2023-02-08T11:02:49.186Z,135.00
2023-02-08T11:03:49.175Z,129.38
2023-02-08T11:04:49.162Z,123.75
2023-02-08T11:05:49.156Z,118.13
2023-02-08T11:06:49.171Z,118.13
2023-02-08T11:07:49.174Z,118.13
2023-02-08T11:08:49.184Z,118.13
2023-02-08T11:09:49.179Z,112.50
2023-02-08T11:10:49.174Z,118.13
2023-02-08T11:11:49.200Z,123.75
2023-02-08T11:12:49.167Z,129.38
2023-02-08T11:13:49.181Z,129.38
2023-02-08T11:14:49.196Z,112.50
2023-02-08T11:15:49.169Z,106.88
2023-02-08T11:16:48.640Z,112.50
2023-02-08T11:17:49.200Z,118.13
2023-02-08T11:18:47.332Z,123.75
2023-02-08T11:19:48.693Z,118.13
2023-02-08T11:20:47.322Z,135.00
2023-02-08T11:21:47.318Z,151.88
2023-02-08T11:22:47.325Z,146.25
2023-02-08T11:23:49.196Z,129.38
2023-02-08T11:24:49.181Z,123.75
2023-02-08T11:25:49.178Z,123.75
2023-02-08T11:26:49.184Z,112.50
2023-02-08T11:27:49.254Z,112.50
2023-02-08T11:28:49.184Z,118.13
2023-02-08T11:29:49.197Z,123.75
2023-02-08T11:30:49.209Z,129.38
2023-02-08T11:31:49.260Z,129.38
2023-02-08T11:32:49.222Z,140.63
2023-02-08T11:33:49.189Z,151.88
2023-02-08T11:34:49.190Z,146.25
2023-02-08T11:35:49.189Z,135.00
2023-02-08T11:36:49.207Z,118.13
2023-02-08T11:37:49.214Z,118.13
2023-02-08T11:38:49.198Z,123.75
2023-02-08T11:39:49.199Z,123.75
2023-02-08T11:40:49.209Z,118.13
2023-02-08T11:41:49.194Z,112.50
2023-02-08T11:42:49.213Z,118.13
2023-02-08T11:43:49.220Z,140.63
2023-02-08T11:44:49.294Z,146.25
2023-02-08T11:45:49.278Z,151.88
2023-02-08T11:46:49.222Z,163.13
2023-02-08T11:47:49.261Z,174.38
2023-02-08T11:48:49.249Z,174.38
2023-02-08T11:49:49.161Z,151.88
2023-02-08T11:50:47.553Z,129.38
2023-02-08T11:51:47.324Z,129.38
2023-02-08T11:52:47.324Z,123.75
2023-02-08T11:53:49.225Z,118.13
2023-02-08T11:54:47.307Z,135.00
2023-02-08T11:55:47.304Z,157.50
2023-02-08T11:56:47.315Z,174.38
2023-02-08T11:57:48.307Z,185.63
2023-02-08T11:58:49.228Z,202.50
2023-02-08T11:59:48.322Z,225.00
2023-02-08T12:00:47.313Z,258.75
2023-02-08T12:01:49.304Z,275.63
2023-02-08T12:02:47.315Z,275.63
2023-02-08T12:03:49.304Z,281.25
2023-02-08T12:04:47.331Z,292.50
2023-02-08T12:05:47.306Z,292.50
2023-02-08T12:06:49.227Z,275.63
2023-02-08T12:07:48.740Z,247.50
2023-02-08T12:08:49.328Z,191.25
2023-02-08T12:09:47.305Z,151.88
2023-02-08T12:10:52.261Z,168.75
2023-02-08T12:11:47.315Z,196.88
2023-02-08T12:12:49.233Z,236.25
2023-02-08T12:13:48.781Z,258.75
2023-02-08T12:14:49.231Z,275.63
2023-02-08T12:15:58.332Z,281.25
2023-02-08T12:16:49.407Z,275.63
2023-02-08T12:17:49.264Z,275.63
2023-02-08T12:18:48.711Z,292.50
2023-02-08T12:19:47.484Z,303.75
2023-02-08T12:20:47.631Z,320.63
2023-02-08T12:21:49.255Z,348.75
2023-02-08T12:22:47.850Z,365.63
2023-02-08T12:23:49.270Z,376.88
2023-02-08T12:24:47.313Z,388.13
2023-02-08T12:25:47.581Z,393.75
2023-02-08T12:26:49.257Z,410.63
2023-02-08T12:27:49.365Z,427.50
2023-02-08T12:28:49.320Z,444.38
2023-02-08T12:29:49.271Z,444.38
2023-02-08T12:30:49.348Z,405.00
2023-02-08T12:31:49.288Z,421.88
2023-02-08T12:32:49.283Z,455.63
2023-02-08T12:33:49.274Z,478.13
2023-02-08T12:34:49.304Z,691.88
2023-02-08T12:36:03.257Z,1642.50
2023-02-08T12:36:49.293Z,1625.63
2023-02-08T12:37:49.289Z,939.38
2023-02-08T12:38:49.250Z,731.25
2023-02-08T12:39:49.279Z,776.25
2023-02-08T12:40:49.310Z,1243.13
2023-02-08T12:41:49.256Z,1670.63
2023-02-08T12:42:49.255Z,1721.25
2023-02-08T12:43:49.271Z,1715.63
2023-02-08T12:44:49.272Z,1771.88
2023-02-08T12:45:49.277Z,1867.50
2023-02-08T12:46:49.257Z,1816.88
2023-02-08T12:48:03.080Z,1732.50
2023-02-08T12:48:49.276Z,1642.50
2023-02-08T12:49:49.263Z,1597.50
2023-02-08T12:50:49.264Z,1636.88
2023-02-08T12:51:49.279Z,1715.63
2023-02-08T12:52:47.395Z,1755.00
2023-02-08T12:53:49.290Z,1766.25
2023-02-08T12:54:49.496Z,1783.13
2023-02-08T12:55:47.365Z,1845.00
2023-02-08T12:57:00.334Z,1861.88
2023-02-08T12:57:47.373Z,1873.13
2023-02-08T12:58:47.382Z,1861.88
2023-02-08T12:59:47.404Z,1884.38
2023-02-08T13:00:48.297Z,1957.50
2023-02-08T13:01:49.295Z,1901.25
2023-02-08T13:02:49.343Z,1867.50
2023-02-08T13:03:49.340Z,1867.50
2023-02-08T13:04:49.292Z,1800.00
2023-02-08T13:06:01.653Z,1760.63
2023-02-08T13:06:49.298Z,1726.88
2023-02-08T13:07:49.283Z,1726.88
2023-02-08T13:08:47.432Z,1710.00
2023-02-08T13:09:49.312Z,1777.50
2023-02-08T13:10:49.307Z,1861.88
2023-02-08T13:11:49.372Z,1901.25
2023-02-08T13:12:47.425Z,1845.00
2023-02-08T13:13:49.297Z,1816.88
2023-02-08T13:14:47.451Z,1839.38
2023-02-08T13:15:47.763Z,1794.38
2023-02-08T13:16:50.309Z,1726.88
2023-02-08T13:17:47.466Z,1749.38
2023-02-08T13:18:47.465Z,1732.50
2023-02-08T13:19:59.608Z,1687.50
2023-02-08T13:20:49.314Z,1715.63
2023-02-08T13:21:47.468Z,1710.00
2023-02-08T13:22:47.476Z,1738.13
2023-02-08T13:23:52.895Z,1760.63
2023-02-08T13:24:52.457Z,1771.88
2023-02-08T13:25:49.336Z,1743.75
2023-02-08T13:26:49.347Z,1732.50
2023-02-08T13:27:47.509Z,1681.88
2023-02-08T13:28:49.332Z,1676.25
2023-02-08T13:29:47.511Z,1755.00
2023-02-08T13:30:49.399Z,1777.50
2023-02-08T13:31:49.359Z,1721.25
2023-02-08T13:32:47.514Z,1665.00
2023-02-08T13:34:00.933Z,1698.75
2023-02-08T13:34:49.355Z,1726.88
2023-02-08T13:35:47.528Z,1749.38
2023-02-08T13:36:47.537Z,1738.13
2023-02-08T13:37:49.324Z,1726.88
2023-02-08T13:38:47.563Z,1738.13
2023-02-08T13:39:49.339Z,1693.13
2023-02-08T13:40:47.600Z,1642.50
2023-02-08T13:41:49.364Z,1670.63
2023-02-08T13:42:49.343Z,1670.63
2023-02-08T13:43:47.588Z,1681.88
2023-02-08T13:44:47.575Z,1687.50
2023-02-08T13:45:47.584Z,1715.63
2023-02-08T13:46:49.363Z,1726.88
2023-02-08T13:47:47.604Z,1642.50
2023-02-08T13:48:49.338Z,1608.75
2023-02-08T13:49:49.372Z,1591.88
2023-02-08T13:50:49.385Z,1597.50
2023-02-08T13:51:49.364Z,1597.50
2023-02-08T13:52:48.898Z,1603.13
2023-02-08T13:53:47.636Z,1614.38
2023-02-08T13:54:47.628Z,1586.25
2023-02-08T13:55:49.360Z,1591.88
2023-02-08T13:56:49.409Z,1608.75
2023-02-08T13:57:47.655Z,1608.75
2023-02-08T13:58:47.647Z,1586.25
2023-02-08T13:59:47.652Z,1563.75
2023-02-08T14:00:47.658Z,1462.50
2023-02-08T14:01:49.428Z,1423.13
2023-02-08T14:02:49.377Z,1423.13
2023-02-08T14:03:49.382Z,1451.25
2023-02-08T14:04:49.383Z,1451.25
2023-02-08T14:05:49.366Z,1445.63
2023-02-08T14:06:49.385Z,1423.13
2023-02-08T14:08:49.384Z,1456.88
2023-02-08T14:09:49.365Z,1468.13
2023-02-08T14:10:49.384Z,1524.38
2023-02-08T14:11:49.383Z,1456.88
2023-02-08T14:12:49.423Z,1451.25
2023-02-08T14:13:49.384Z,1428.75
2023-02-08T14:14:49.385Z,1434.38
2023-02-08T14:15:49.408Z,1456.88
2023-02-08T14:16:49.375Z,1462.50
2023-02-08T14:17:49.379Z,1366.88
2023-02-08T14:18:47.746Z,1316.25
2023-02-08T14:19:49.400Z,1305.00
2023-02-08T14:20:47.763Z,1316.25
2023-02-08T14:21:47.777Z,1333.13
2023-02-08T14:22:47.760Z,1299.38
2023-02-08T14:23:47.794Z,1333.13
2023-02-08T14:24:49.392Z,1271.25
2023-02-08T14:25:47.807Z,1243.13
2023-02-08T14:26:47.796Z,1248.75
2023-02-08T14:27:47.787Z,1237.50
2023-02-08T14:28:47.823Z,1186.88
2023-02-08T14:29:49.409Z,1125.00
2023-02-08T14:30:48.041Z,1051.88
2023-02-08T14:31:48.008Z,1113.75
2023-02-08T14:32:49.400Z,1186.88
2023-02-08T14:33:49.428Z,1147.50
2023-02-08T14:34:49.402Z,1102.50
2023-02-08T14:35:49.389Z,1080.00
2023-02-08T14:36:49.388Z,1035.00
2023-02-08T14:37:47.831Z,1012.50
2023-02-08T14:38:49.392Z,961.88
2023-02-08T14:39:49.410Z,956.25
2023-02-08T14:40:49.398Z,956.25
2023-02-08T14:41:49.396Z,956.25
2023-02-08T14:42:49.431Z,973.13
2023-02-08T14:43:47.876Z,1006.88
2023-02-08T14:45:48.214Z,1006.88
2023-02-08T14:46:49.491Z,956.25
2023-02-08T14:47:49.407Z,928.13
2023-02-08T14:48:50.424Z,900.00
2023-02-08T14:49:49.404Z,860.63
2023-02-08T14:50:47.888Z,810.00
2023-02-08T14:51:47.886Z,787.50
2023-02-08T14:52:47.892Z,776.25
2023-02-08T14:53:47.923Z,697.50
2023-02-08T14:54:49.430Z,669.38
2023-02-08T14:55:47.899Z,703.13
2023-02-08T14:56:47.905Z,697.50
2023-02-08T14:57:47.906Z,590.63
2023-02-08T14:58:49.434Z,309.38
2023-02-08T14:59:47.910Z,135.00
2023-02-08T15:00:47.991Z,118.13
2023-02-08T15:01:47.932Z,112.50
2023-02-08T15:02:49.445Z,106.88
2023-02-08T15:03:47.968Z,101.25
2023-02-08T15:04:49.439Z,101.25
2023-02-08T15:05:47.929Z,95.63
2023-02-08T15:06:51.102Z,90.00
2023-02-08T15:07:49.441Z,90.00
2023-02-08T15:08:47.932Z,84.38
2023-02-08T15:09:47.940Z,84.38
2023-02-08T15:10:47.941Z,78.75
2023-02-08T15:11:49.930Z,78.75
2023-02-08T15:12:49.471Z,78.75
2023-02-08T15:13:47.941Z,73.13
2023-02-08T15:14:49.467Z,73.13
2023-02-08T15:15:47.949Z,67.50
2023-02-08T15:16:49.557Z,67.50
2023-02-08T15:17:48.980Z,67.50
2023-02-08T15:18:48.957Z,61.88
2023-02-08T15:19:49.473Z,61.88
2023-02-08T15:20:47.968Z,61.88
2023-02-08T15:21:49.962Z,61.88
2023-02-08T15:22:47.979Z,56.25
2023-02-08T15:23:49.962Z,56.25
2023-02-08T15:24:49.962Z,56.25
2023-02-08T15:25:48.957Z,56.25
2023-02-08T15:26:47.957Z,56.25
2023-02-08T15:27:48.999Z,50.63
2023-02-08T15:28:49.968Z,50.63
2023-02-08T15:29:48.929Z,50.63
2023-02-08T15:30:47.990Z,50.63
2023-02-08T15:31:48.041Z,50.63
2023-02-08T15:32:47.955Z,50.63
2023-02-08T15:33:49.497Z,45.00
2023-02-08T15:34:48.954Z,45.00
2023-02-08T15:35:49.462Z,45.00
2023-02-08T15:36:49.458Z,45.00
2023-02-08T15:37:49.476Z,45.00
2023-02-08T15:38:49.479Z,45.00
2023-02-08T15:39:49.470Z,39.38
2023-02-08T15:40:49.488Z,39.38
2023-02-08T15:41:49.474Z,39.38
2023-02-08T15:42:49.461Z,39.38
2023-02-08T15:43:49.456Z,39.38
2023-02-08T15:44:49.462Z,33.75
2023-02-08T15:45:49.553Z,33.75
2023-02-08T15:46:49.482Z,33.75
2023-02-08T15:47:49.467Z,33.75
2023-02-08T15:48:48.933Z,33.75
2023-02-08T15:49:49.504Z,33.75
2023-02-08T15:50:49.482Z,28.13
2023-02-08T15:51:49.485Z,28.13
2023-02-08T15:52:49.480Z,28.13
2023-02-08T15:53:48.064Z,28.13
2023-02-08T15:54:49.484Z,28.13
2023-02-08T15:55:47.924Z,28.13
2023-02-08T15:56:47.932Z,28.13
2023-02-08T15:57:48.999Z,22.50
2023-02-08T15:58:47.926Z,22.50
2023-02-08T15:59:47.922Z,22.50
2023-02-08T16:00:49.013Z,22.50
2023-02-08T16:13:00.341Z,11.25
2023-02-08T16:13:59.366Z,11.25
2023-02-08T16:14:59.838Z,11.25
2023-02-08T16:16:08.467Z,11.25
2023-02-08T16:16:59.438Z,11.25
2023-02-08T16:17:58.337Z,11.25
2023-02-08T16:19:00.322Z,5.63
2023-02-08T16:20:00.314Z,5.63
2023-02-08T16:20:59.386Z,5.63
2023-02-08T16:21:58.327Z,5.63
2023-02-08T16:23:00.310Z,5.63
2023-02-08T16:23:59.813Z,5.63
2023-02-08T16:24:58.319Z,5.63
2023-02-08T16:25:59.829Z,5.63
2023-02-08T16:26:59.833Z,5.63
2023-02-08T16:27:59.863Z,5.63
2023-02-08T16:28:59.904Z,0.00
2023-02-08T16:29:59.836Z,0.00
2023-02-08T16:30:59.489Z,0.00
2023-02-08T16:31:58.317Z,0.00
2023-02-08T16:32:58.298Z,0.00
2023-02-08T16:33:59.302Z,0.00
2023-02-08T16:34:59.287Z,0.00
2023-02-08T16:35:59.345Z,0.00
2023-02-08T16:36:59.333Z,0.00
2023-02-08T16:37:58.272Z,0.00
2023-02-08T16:38:58.280Z,0.00
2023-02-08T16:39:58.277Z,0.00
2023-02-08T16:40:58.267Z,0.00
2023-02-08T16:42:14.544Z,0.00
2023-02-08T16:42:58.264Z,0.00
2023-02-08T16:43:58.254Z,0.00
2023-02-08T16:44:59.856Z,0.00
2023-02-08T16:45:59.848Z,0.00
2023-02-08T16:46:59.858Z,0.00
2023-02-08T16:48:04.267Z,0.00
2023-02-08T16:48:59.843Z,0.00
2023-02-08T16:49:59.847Z,0.00
2023-02-08T16:50:59.837Z,0.00
2023-02-08T16:51:59.225Z,0.00
2023-02-08T16:52:59.869Z,0.00
2023-02-08T16:53:59.226Z,0.00
2023-02-08T16:54:59.871Z,0.00
2023-02-08T16:55:58.213Z,0.00
2023-02-08T16:56:59.865Z,0.00
2023-02-08T16:57:59.853Z,0.00
2023-02-08T16:58:59.861Z,0.00
2023-02-08T16:59:59.846Z,0.00
2023-02-08T17:00:59.859Z,0.00
2023-02-08T17:01:59.844Z,0.00
2023-02-08T17:02:59.844Z,0.00
2023-02-08T17:03:59.902Z,0.00
2023-02-08T17:04:58.182Z,0.00
2023-02-08T17:05:58.181Z,0.00
2023-02-08T17:06:58.181Z,0.00
2023-02-08T17:07:59.414Z,0.00
2023-02-08T17:08:58.249Z,0.00
2023-02-08T17:09:59.977Z,0.00
2023-02-08T17:10:58.161Z,0.00
2023-02-08T17:11:58.165Z,0.00
2023-02-08T17:13:13.276Z,0.00
2023-02-08T17:13:59.878Z,0.00
2023-02-08T17:14:59.872Z,0.00
2023-02-08T17:15:59.889Z,0.00
2023-02-08T17:16:59.870Z,0.00
2023-02-08T17:17:59.866Z,0.00
2023-02-08T17:18:59.877Z,0.00
2023-02-08T17:19:59.952Z,0.00
2023-02-08T17:20:59.931Z,0.00